X  Chiuso Dati meteorologici dell'aviazione (METAR)     LYNI Nis Airport
Temperatura
-3°C Temperatura
-3°C Punto di rugiada
100% Umidità



Vento
0 M/S
0 MPH
0 KM/O
0 KTS



Calmo
N
Condizioni attuali

Congelamento Nebbia Congelamento Nebbia
Pressione 1019.92 (hPa) - 30.12 (inHg)
Visibilità 0.2 (miglio) - 0.3 (km)
Aeroporto
Codice-Aeroporto LYNI

Posizione: Nis Airport
Distanza: 63 (km)

Metar:
LYNI 290630Z 00000KT 0250 R29/0325N R11/0325N FZFG SCT002 M03/M03 Q1020 BECMG FM0700 1000 BR

Ore: 29-11-2022 07:30 CET